Time;durP1;ratioP1;P1;durP2;ratioP2;P2;SDS_P1;SDS_P2;PMS_P1;PMS_P2;Temp;Humidity;BMP_temperature;BMP_pressure;BME280_temperature;BME280_humidity;BME280_pressure;Samples;Min_cycle;Max_cycle;Signal;HPM_P1;HPM_P2
2021/10/01 00:00:55;;;;;;;8.65;3.15;;;;;;;4.73;96.38;96326.94;5061831;28;20560;-82
2021/10/01 00:03:21;;;;;;;7.85;3.17;;;;;;;4.47;97.56;96323.50;5044190;28;20045;-82
2021/10/01 00:05:46;;;;;;;10.40;2.80;;;;;;;4.44;97.00;96323.88;5048433;28;20052;-82
2021/10/01 00:08:12;;;;;;;4.97;2.72;;;;;;;4.48;97.18;96314.66;5039974;28;20041;-82
2021/10/01 00:10:38;;;;;;;5.85;2.70;;;;;;;4.58;96.37;96320.19;5032722;28;20625;-82
2021/10/01 00:13:03;;;;;;;7.45;2.85;;;;;;;4.47;97.04;96318.28;5042799;28;20049;-82
2021/10/01 00:15:29;;;;;;;5.47;2.55;;;;;;;4.43;97.57;96317.88;5045425;28;20045;-82
2021/10/01 00:17:55;;;;;;;5.75;2.97;;;;;;;4.55;97.27;96320.63;5046916;28;20048;-82
2021/10/01 00:20:20;;;;;;;6.10;2.90;;;;;;;4.37;96.59;96320.53;5038447;28;20042;-82
2021/10/01 00:22:46;;;;;;;5.93;2.70;;;;;;;4.47;96.68;96324.28;5045008;28;20159;-82
2021/10/01 00:25:12;;;;;;;7.40;2.92;;;;;;;4.36;96.96;96321.56;5038828;28;20037;-82
2021/10/01 00:27:37;;;;;;;5.25;3.00;;;;;;;4.22;97.31;96321.59;5028400;28;20057;-82
2021/10/01 00:30:06;;;;;;;5.13;2.53;;;;;;;4.32;97.54;96321.97;5040367;28;20045;-82
2021/10/01 00:32:32;;;;;;;5.72;2.90;;;;;;;4.31;96.71;96317.75;5044580;28;20030;-82
2021/10/01 00:34:57;;;;;;;5.22;2.83;;;;;;;4.27;97.24;96308.75;5046691;28;20045;-82
2021/10/01 00:37:23;;;;;;;6.07;2.80;;;;;;;4.29;96.50;96308.56;5047752;28;20052;-82
2021/10/01 00:39:48;;;;;;;8.48;2.78;;;;;;;4.29;96.87;96309.34;5046692;28;20037;-82
2021/10/01 00:42:14;;;;;;;4.63;2.70;;;;;;;4.25;96.85;96295.16;5042069;28;20411;-82
2021/10/01 00:44:40;;;;;;;6.75;2.78;;;;;;;4.24;97.62;96293.56;5046675;28;20033;-82
2021/10/01 00:47:05;;;;;;;6.45;2.38;;;;;;;4.14;98.28;96288.78;5046049;28;20085;-82
2021/10/01 00:49:31;;;;;;;7.10;3.20;;;;;;;4.06;98.57;96285.63;5046389;28;20410;-82
2021/10/01 00:51:56;;;;;;;8.82;3.20;;;;;;;3.97;98.83;96272.84;5045995;28;20116;-82
2021/10/01 00:54:23;;;;;;;9.52;2.97;;;;;;;4.06;98.83;96280.44;5043641;28;20490;-82
2021/10/01 00:56:49;;;;;;;5.72;2.90;;;;;;;4.17;97.42;96282.38;5044704;28;20037;-82
2021/10/01 00:59:14;;;;;;;5.45;3.03;;;;;;;4.11;98.03;96283.22;5047699;28;20037;-82
2021/10/01 01:01:41;;;;;;;7.10;3.25;;;;;;;4.08;98.60;96284.44;5047336;28;20098;-83
2021/10/01 01:04:08;;;;;;;6.78;2.80;;;;;;;4.26;97.04;96275.91;5045421;28;20106;-83
2021/10/01 01:06:46;;;;;;;7.93;2.90;;;;;;;4.21;96.32;96277.53;5043240;28;20095;-82
2021/10/01 01:09:20;;;;;;;4.57;2.65;;;;;;;4.07;97.02;96271.63;5030659;28;20811;-82
2021/10/01 01:12:03;;;;;;;6.00;2.80;;;;;;;3.91;97.06;96273.69;5039345;28;20695;-82
2021/10/01 01:14:38;;;;;;;5.88;2.72;;;;;;;3.97;97.68;96262.44;5038010;28;20510;-82
2021/10/01 01:17:06;;;;;;;5.97;2.90;;;;;;;3.85;98.30;96269.31;5046085;28;20052;-82
2021/10/01 01:19:52;;;;;;;5.60;2.58;;;;;;;3.90;97.79;96271.28;5038892;28;20040;-82
2021/10/01 01:22:35;;;;;;;8.35;3.33;;;;;;;3.88;98.85;96263.69;5045996;28;20037;-82
2021/10/01 01:25:12;;;;;;;6.28;2.75;;;;;;;3.89;98.24;96254.84;5045383;28;20494;-82
2021/10/01 01:27:37;;;;;;;5.53;2.90;;;;;;;3.85;96.91;96258.91;5034800;28;20122;-82
2021/10/01 01:30:12;;;;;;;6.28;2.78;;;;;;;3.83;97.27;96253.09;5036746;28;20053;-82
2021/10/01 01:32:40;;;;;;;5.32;2.80;;;;;;;3.83;98.12;96255.69;5042861;28;20398;-82
2021/10/01 01:35:09;;;;;;;5.70;2.90;;;;;;;3.81;97.55;96253.31;5031262;28;20045;-82
2021/10/01 01:37:44;;;;;;;5.70;2.75;;;;;;;3.80;97.73;96245.69;5037349;28;20115;-82
2021/10/01 01:40:13;;;;;;;4.07;2.60;;;;;;;3.94;96.64;96252.44;5047626;28;20048;-82
2021/10/01 01:42:41;;;;;;;4.72;2.60;;;;;;;3.77;95.80;96248.72;5037121;28;20498;-83
2021/10/01 01:45:08;;;;;;;4.88;2.67;;;;;;;3.69;97.00;96238.53;5050846;28;20115;-82
2021/10/01 01:47:36;;;;;;;6.90;2.95;;;;;;;3.81;97.13;96236.88;5037701;28;20528;-82
2021/10/01 01:50:03;;;;;;;5.72;2.97;;;;;;;3.82;97.15;96228.06;5049119;28;20120;-82
2021/10/01 01:52:31;;;;;;;6.47;2.83;;;;;;;3.72;97.64;96232.91;5034167;28;20041;-82
2021/10/01 01:54:57;;;;;;;6.03;2.70;;;;;;;3.64;97.01;96232.16;5046029;28;20045;-82
2021/10/01 01:57:24;;;;;;;7.72;2.70;;;;;;;3.53;96.63;96230.19;5031936;28;20042;-82
2021/10/01 01:59:51;;;;;;;5.53;2.67;;;;;;;3.52;96.71;96228.63;5044842;28;20483;-82
2021/10/01 02:02:19;;;;;;;5.20;2.80;;;;;;;3.53;97.82;96219.78;5050393;28;20049;-82
2021/10/01 02:04:46;;;;;;;4.22;2.65;;;;;;;3.57;97.83;96220.97;5046585;28;20041;-82
2021/10/01 02:07:12;;;;;;;6.97;2.80;;;;;;;3.51;97.77;96227.00;5042764;28;20575;-83
2021/10/01 02:09:38;;;;;;;5.50;2.67;;;;;;;3.51;97.58;96227.00;5048718;28;20075;-83
2021/10/01 02:12:04;;;;;;;6.78;3.10;;;;;;;3.52;98.13;96227.78;5035311;28;20049;-82
2021/10/01 02:14:35;;;;;;;6.43;2.85;;;;;;;3.59;97.81;96221.56;5047375;28;20095;-82
2021/10/01 02:17:01;;;;;;;9.05;2.70;;;;;;;3.55;97.20;96217.78;5042197;28;20041;-83
2021/10/01 02:19:31;;;;;;;5.70;2.75;;;;;;;3.56;97.77;96211.59;5048563;28;20147;-82
2021/10/01 02:21:59;;;;;;;5.70;2.75;;;;;;;3.55;96.31;96215.19;5045264;28;20083;-82
2021/10/01 02:24:28;;;;;;;7.78;2.72;;;;;;;3.43;97.32;96214.22;5048309;28;20047;-82
2021/10/01 02:27:23;;;;;;;8.00;3.30;;;;;;;3.50;96.65;96211.59;5048082;28;20124;-82
2021/10/01 02:30:19;;;;;;;7.78;2.60;;;;;;;3.46;96.52;96211.19;5042685;28;20056;-83
2021/10/01 02:32:56;;;;;;;5.75;2.63;;;;;;;3.48;97.36;96206.59;5040612;28;20147;-82
2021/10/01 02:35:22;;;;;;;4.28;2.83;;;;;;;3.36;97.42;96198.66;5042950;28;20545;-81
2021/10/01 02:37:48;;;;;;;7.80;2.78;;;;;;;3.27;97.95;96200.66;5039080;28;20041;-82
2021/10/01 02:40:13;;;;;;;6.78;2.78;;;;;;;3.17;98.57;96204.72;5028861;28;20049;-82
2021/10/01 02:42:39;;;;;;;5.85;3.00;;;;;;;3.17;99.09;96204.72;5044281;28;20048;-82
2021/10/01 02:45:07;;;;;;;9.77;2.72;;;;;;;3.20;99.04;96202.47;5048622;28;20049;-82
2021/10/01 02:47:34;;;;;;;7.40;2.83;;;;;;;3.30;98.66;96199.47;5048090;28;20130;-82
2021/10/01 02:50:04;;;;;;;5.28;2.60;;;;;;;3.25;97.53;96202.69;5049405;28;20071;-82
2021/10/01 02:52:48;;;;;;;5.60;2.80;;;;;;;3.10;97.79;96194.31;5035821;28;20124;-81
2021/10/01 02:55:42;;;;;;;5.67;2.87;;;;;;;3.12;99.00;96194.94;5044361;28;20049;-82
2021/10/01 02:58:13;;;;;;;4.97;2.88;;;;;;;3.18;98.53;96196.69;5037241;28;20057;-82
2021/10/01 03:00:39;;;;;;;5.93;3.00;;;;;;;3.21;98.26;96185.09;5028294;28;20139;-81
2021/10/01 03:03:10;;;;;;;3.83;2.33;;;;;;;3.16;97.93;96196.13;5036737;28;20487;-81
2021/10/01 03:05:38;;;;;;;6.95;2.65;;;;;;;3.21;98.28;96191.09;5047655;28;20506;-82
2021/10/01 03:08:05;;;;;;;7.07;2.47;;;;;;;3.29;97.91;96177.84;5047842;28;20060;-82
2021/10/01 03:10:32;;;;;;;5.95;3.05;;;;;;;3.27;97.68;96179.84;5047563;28;20049;-82
2021/10/01 03:12:59;;;;;;;4.22;2.55;;;;;;;3.25;98.12;96181.88;5038096;28;20045;-82
2021/10/01 03:15:25;;;;;;;6.43;3.08;;;;;;;3.20;99.00;96171.28;5046329;28;20138;-82
2021/10/01 03:17:50;;;;;;;5.43;2.67;;;;;;;3.22;97.98;96171.88;5048161;28;20079;-82
2021/10/01 03:20:16;;;;;;;12.18;3.00;;;;;;;3.20;98.28;96173.88;5047404;28;20461;-82
2021/10/01 03:22:43;;;;;;;7.72;3.10;;;;;;;3.21;98.03;96170.28;5048834;28;20045;-82
2021/10/01 03:25:11;;;;;;;5.60;2.72;;;;;;;3.19;98.59;96169.69;5046180;28;20596;-81
2021/10/01 03:27:38;;;;;;;4.47;2.63;;;;;;;3.22;98.11;96166.69;5047399;28;20051;-81
2021/10/01 03:30:07;;;;;;;5.70;2.53;;;;;;;3.14;97.55;96159.09;5048951;28;20115;-82
2021/10/01 03:32:33;;;;;;;4.97;2.83;;;;;;;3.00;98.64;96147.94;5047167;28;20084;-81
2021/10/01 03:35:02;;;;;;;5.80;2.60;;;;;;;2.97;99.21;96142.38;5041452;28;20069;-81
2021/10/01 03:37:29;;;;;;;4.85;2.80;;;;;;;2.86;99.34;96144.59;5043039;28;20037;-82
2021/10/01 03:40:01;;;;;;;7.35;3.10;;;;;;;2.92;100.00;96135.97;5040856;28;20523;-82
2021/10/01 03:42:27;;;;;;;8.50;2.80;;;;;;;2.90;99.98;96137.19;5039552;28;20041;-82
2021/10/01 03:44:53;;;;;;;5.75;2.72;;;;;;;2.98;99.72;96139.56;5043357;28;20037;-81
2021/10/01 03:47:19;;;;;;;8.15;3.40;;;;;;;3.11;100.00;96143.91;5038824;28;20052;-82
2021/10/01 03:49:45;;;;;;;6.07;3.05;;;;;;;2.98;99.20;96141.38;5048572;28;20053;-82
2021/10/01 03:52:13;;;;;;;5.05;2.95;;;;;;;3.05;99.93;96144.75;5048669;28;20048;-81
2021/10/01 03:54:41;;;;;;;5.03;2.92;;;;;;;3.02;100.00;96142.56;5047330;28;20034;-81
2021/10/01 03:57:06;;;;;;;8.70;3.22;;;;;;;3.10;98.95;96137.09;5043011;28;20094;-81
2021/10/01 03:59:32;;;;;;;8.88;2.47;;;;;;;3.10;97.96;96137.09;5048095;28;20044;-81
2021/10/01 04:01:57;;;;;;;5.32;2.60;;;;;;;2.94;98.78;96128.78;5046961;28;20037;-82
2021/10/01 04:04:23;;;;;;;6.65;3.05;;;;;;;2.92;99.23;96125.56;5044537;28;20040;-81
2021/10/01 04:06:49;;;;;;;6.82;3.30;;;;;;;3.07;99.27;96129.72;5042880;28;20041;-81
2021/10/01 04:09:15;;;;;;;8.30;3.38;;;;;;;3.10;98.77;96126.69;5044667;28;20045;-81
2021/10/01 04:11:40;;;;;;;9.57;3.53;;;;;;;2.93;98.56;96124.56;5026967;28;20120;-81
2021/10/01 04:14:07;;;;;;;12.60;4.20;;;;;;;2.86;98.80;96116.00;5042200;28;20044;-81
2021/10/01 04:16:32;;;;;;;8.73;3.85;;;;;;;2.89;98.66;96126.00;5046751;28;20512;-82
2021/10/01 04:18:58;;;;;;;17.77;4.45;;;;;;;2.78;99.13;96124.81;5047707;28;20083;-81
2021/10/01 04:21:24;;;;;;;22.33;6.35;;;;;;;2.87;99.14;96122.78;5047921;28;20154;-81
2021/10/01 04:23:49;;;;;;;21.30;6.45;;;;;;;3.00;98.11;96121.16;5045437;28;20448;-81
2021/10/01 04:26:17;;;;;;;21.85;7.10;;;;;;;2.91;97.57;96113.56;5048241;28;20071;-82
2021/10/01 04:28:43;;;;;;;40.85;10.02;;;;;;;2.76;99.17;96121.63;5045032;28;20052;-81
2021/10/01 04:31:09;;;;;;;37.10;9.30;;;;;;;2.77;98.64;96112.03;5048197;28;20041;-81
2021/10/01 04:33:35;;;;;;;34.92;8.98;;;;;;;2.86;97.71;96116.00;5041402;28;20391;-81
2021/10/01 04:36:02;;;;;;;43.38;11.70;;;;;;;2.83;98.35;96121.63;5035358;28;20049;-81
2021/10/01 04:38:28;;;;;;;52.97;12.07;;;;;;;2.90;97.88;96112.00;5040866;28;20068;-81
2021/10/01 04:40:54;;;;;;;48.03;13.18;;;;;;;3.06;97.35;96115.13;5039359;28;20124;-81
2021/10/01 04:43:20;;;;;;;55.15;13.77;;;;;;;2.94;97.19;96113.19;5036561;28;20530;-82
2021/10/01 04:45:45;;;;;;;48.83;12.88;;;;;;;2.68;98.11;96108.06;5046885;28;20048;-81
2021/10/01 04:48:11;;;;;;;51.28;12.75;;;;;;;2.67;97.99;96111.66;5042312;28;20048;-81
2021/10/01 04:50:37;;;;;;;53.80;13.15;;;;;;;2.57;98.46;96118.09;5035903;28;20103;-81
2021/10/01 04:53:04;;;;;;;52.25;12.32;;;;;;;2.56;97.71;96126.88;5036961;28;20048;-81
2021/10/01 04:55:32;;;;;;;44.10;11.98;;;;;;;2.53;98.60;96122.09;5050470;28;20427;-82
2021/10/01 04:58:03;;;;;;;42.85;12.32;;;;;;;2.56;98.71;96120.88;5051355;28;20044;-81
2021/10/01 05:00:29;;;;;;;49.67;12.38;;;;;;;2.68;98.13;96118.44;5049939;28;20045;-82
2021/10/01 05:02:54;;;;;;;48.33;12.48;;;;;;;2.54;98.11;96120.28;5048393;28;20124;-81
2021/10/01 05:05:20;;;;;;;44.67;12.82;;;;;;;2.46;98.90;96116.09;5045898;28;20045;-81
2021/10/01 05:07:46;;;;;;;50.28;12.70;;;;;;;2.53;98.03;96116.88;5048411;28;20053;-81
2021/10/01 05:10:12;;;;;;;40.25;11.95;;;;;;;2.65;97.13;96118.88;5046867;28;20033;-80
2021/10/01 05:12:42;;;;;;;38.40;11.73;;;;;;;2.49;97.79;96115.69;5050577;28;20041;-81
2021/10/01 05:15:09;;;;;;;33.92;10.38;;;;;;;2.43;99.37;96119.09;5051571;28;20068;-81
2021/10/01 05:17:37;;;;;;;43.47;11.30;;;;;;;2.53;98.98;96116.06;5049982;28;20045;-81
2021/10/01 05:20:05;;;;;;;42.90;10.68;;;;;;;2.65;98.06;96119.66;5049469;28;20068;-81
2021/10/01 05:22:31;;;;;;;29.85;9.65;;;;;;;2.57;98.42;96112.88;5048194;28;20044;-81
2021/10/01 05:24:57;;;;;;;38.28;11.23;;;;;;;2.63;98.42;96110.47;5044271;28;20166;-81
2021/10/01 05:27:22;;;;;;;35.60;9.75;;;;;;;2.53;98.39;96116.88;5051217;28;20053;-82
2021/10/01 05:29:48;;;;;;;41.08;10.25;;;;;;;2.47;99.33;96112.50;5050571;28;20052;-81
2021/10/01 05:32:13;;;;;;;36.92;9.93;;;;;;;2.58;98.82;96117.06;5043813;28;20125;-81
2021/10/01 05:34:39;;;;;;;40.72;10.50;;;;;;;2.64;98.90;96112.06;5043471;28;20033;-81
2021/10/01 05:37:05;;;;;;;35.95;11.07;;;;;;;2.66;98.30;96110.88;5048999;28;20477;-83
2021/10/01 05:39:31;;;;;;;38.22;10.18;;;;;;;2.70;98.45;96111.25;5051319;28;20041;-82
2021/10/01 05:41:58;;;;;;;31.40;9.65;;;;;;;2.67;98.63;96116.84;5048860;28;20087;-82
2021/10/01 05:44:23;;;;;;;36.83;9.55;;;;;;;2.58;99.41;96109.25;5038567;28;20533;-80
2021/10/01 05:46:49;;;;;;;24.77;7.80;;;;;;;2.86;98.90;96105.59;5042616;28;20045;-81
2021/10/01 05:49:20;;;;;;;24.25;8.10;;;;;;;2.86;98.66;96105.59;5048711;28;20108;-82
2021/10/01 05:51:49;;;;;;;25.73;7.95;;;;;;;2.90;98.21;96106.78;5042014;28;20038;-81
2021/10/01 05:54:21;;;;;;;23.27;6.90;;;;;;;3.00;98.12;96108.16;5041826;28;20659;-81
2021/10/01 05:56:49;;;;;;;24.45;7.05;;;;;;;3.03;98.29;96112.94;5049131;28;20029;-81
2021/10/01 05:59:15;;;;;;;24.42;7.30;;;;;;;2.92;98.70;96109.97;5049411;28;20070;-81
2021/10/01 06:01:40;;;;;;;20.35;6.50;;;;;;;2.92;99.87;96115.19;5065192;28;20040;-81
2021/10/01 06:04:06;;;;;;;26.50;6.72;;;;;;;2.97;100.00;96111.16;5043273;28;20107;-82
2021/10/01 06:06:32;;;;;;;22.13;6.47;;;;;;;3.08;100.00;96113.13;5050683;28;20419;-79
2021/10/01 06:08:58;;;;;;;18.38;5.50;;;;;;;3.15;100.00;96111.28;5048351;28;20128;-79
2021/10/01 06:11:24;;;;;;;14.35;5.15;;;;;;;3.16;100.00;96110.28;5045371;28;20541;-80
2021/10/01 06:13:49;;;;;;;15.80;5.25;;;;;;;3.40;100.00;96116.56;5049000;28;20041;-80
2021/10/01 06:16:15;;;;;;;14.77;5.30;;;;;;;3.53;100.00;96115.69;5049130;28;20045;-80
2021/10/01 06:18:41;;;;;;;14.07;5.28;;;;;;;3.55;100.00;96108.47;5050690;28;20110;-79
2021/10/01 06:21:06;;;;;;;13.13;4.03;;;;;;;3.69;100.00;96113.59;5048418;28;20044;-84
2021/10/01 06:23:35;;;;;;;13.43;4.53;;;;;;;3.88;100.00;96104.84;5045478;28;20120;-78
2021/10/01 06:26:05;;;;;;;13.27;4.45;;;;;;;4.07;100.00;96110.91;5050638;28;20045;-78
2021/10/01 06:28:31;;;;;;;10.98;4.35;;;;;;;4.10;100.00;96110.47;5051736;28;20383;-79
2021/10/01 06:30:58;;;;;;;10.60;3.97;;;;;;;4.17;99.63;96113.03;5048078;28;20048;-79
2021/10/01 06:33:25;;;;;;;14.18;3.97;;;;;;;4.19;98.85;96113.59;5046907;28;20496;-81
2021/10/01 06:35:51;;;;;;;12.88;3.83;;;;;;;4.25;99.27;96107.56;5049625;28;20033;-81
2021/10/01 06:38:17;;;;;;;13.85;4.25;;;;;;;4.41;100.00;96111.44;5047296;28;20044;-81
2021/10/01 06:40:43;;;;;;;10.07;4.05;;;;;;;4.47;100.00;96104.56;5046727;28;20036;-82
2021/10/01 06:43:10;;;;;;;9.50;3.65;;;;;;;4.63;100.00;96114.41;5051920;28;20037;-81
2021/10/01 06:45:37;;;;;;;8.18;3.55;;;;;;;4.83;100.00;96110.81;5052701;28;20048;-81
2021/10/01 08:20:08;;;;;;;4.93;2.10;;;;;;;8.94;90.65;96091.38;5035984;28;20061;-77
2021/10/01 08:22:34;;;;;;;3.53;2.10;;;;;;;9.41;89.78;96088.22;5048181;28;20094;-77
2021/10/01 08:24:59;;;;;;;5.40;2.20;;;;;;;9.41;89.18;96090.03;5047254;28;20068;-77
2021/10/01 08:27:26;;;;;;;4.75;1.90;;;;;;;9.30;90.88;96091.78;5051046;28;20099;-77
2021/10/01 08:29:52;;;;;;;4.80;2.30;;;;;;;9.49;87.20;96095.63;5051608;28;20064;-77
2021/10/01 08:32:17;;;;;;;4.10;2.15;;;;;;;9.40;90.56;96091.88;5051181;28;20494;-77
2021/10/01 08:34:45;;;;;;;4.95;2.10;;;;;;;9.32;90.86;96090.50;5045797;28;20057;-77
2021/10/01 08:37:13;;;;;;;5.70;2.00;;;;;;;9.79;88.10;96089.09;5050310;28;20041;-78
2021/10/01 08:39:40;;;;;;;4.45;2.15;;;;;;;10.01;86.50;96080.31;5056334;28;20057;-77
2021/10/01 08:42:05;;;;;;;10.52;2.22;;;;;;;9.86;88.57;96087.03;5051272;28;20049;-77
2021/10/01 08:44:34;;;;;;;5.95;2.30;;;;;;;9.72;88.20;96085.88;5046220;28;20165;-77
2021/10/01 08:47:02;;;;;;;2.75;2.10;;;;;;;9.96;87.01;96082.94;5054086;28;20052;-77
2021/10/01 08:49:29;;;;;;;3.50;2.20;;;;;;;10.30;86.96;96077.38;5056768;28;20574;-77
2021/10/01 08:51:56;;;;;;;4.20;2.13;;;;;;;10.38;87.02;96082.19;5054554;28;20080;-77
2021/10/01 08:54:23;;;;;;;4.82;2.30;;;;;;;10.63;84.18;96080.75;5048988;28;20068;-76
2021/10/01 08:56:48;;;;;;;6.15;2.08;;;;;;;10.62;86.58;96076.56;5062086;28;20118;-77
2021/10/01 08:59:14;;;;;;;3.85;2.10;;;;;;;10.55;87.77;96074.94;5051072;28;20535;-77
2021/10/01 09:01:40;;;;;;;4.07;2.00;;;;;;;10.57;86.94;96072.84;5047268;28;20094;-78
2021/10/01 09:04:07;;;;;;;8.32;2.08;;;;;;;10.38;86.57;96069.03;5043015;28;20090;-77
2021/10/01 09:06:33;;;;;;;3.30;2.00;;;;;;;10.43;84.29;96066.47;5047045;28;20049;-77
2021/10/01 09:09:04;;;;;;;4.25;1.70;;;;;;;10.55;83.56;96064.41;5048726;28;20086;-77
2021/10/01 09:11:40;;;;;;;4.72;1.92;;;;;;;10.68;84.10;96057.09;5052339;28;20122;-77
2021/10/01 09:14:08;;;;;;;3.15;1.80;;;;;;;11.14;81.89;96062.56;5054669;28;20498;-77
2021/10/01 09:16:35;;;;;;;4.40;1.73;;;;;;;11.59;78.55;96053.16;5048341;28;20154;-77
2021/10/01 09:19:01;;;;;;;5.50;1.70;;;;;;;11.95;76.40;96053.22;5049080;28;20040;-77
2021/10/01 09:21:27;;;;;;;2.42;1.38;;;;;;;11.73;78.64;96060.56;5047904;28;20061;-76
2021/10/01 09:24:03;;;;;;;4.43;2.00;;;;;;;11.86;78.15;96057.38;5047640;28;20408;-77
2021/10/01 09:26:32;;;;;;;2.60;1.55;;;;;;;12.02;79.13;96054.78;5046403;28;20073;-77
2021/10/01 09:29:00;;;;;;;4.85;1.90;;;;;;;12.04;78.27;96044.75;5048185;28;20047;-77
2021/10/01 09:31:44;;;;;;;4.40;1.70;;;;;;;12.32;74.61;96050.53;5046726;28;20534;-77
2021/10/01 09:34:31;;;;;;;6.00;1.87;;;;;;;12.61;72.24;96051.53;5047581;28;20056;-76
2021/10/01 09:37:04;;;;;;;3.03;1.73;;;;;;;12.77;71.94;96046.19;5044069;28;20049;-77
2021/10/01 09:39:32;;;;;;;2.83;1.60;;;;;;;12.98;71.51;96042.41;5046744;28;20049;-77
2021/10/01 09:41:59;;;;;;;9.05;1.90;;;;;;;13.16;70.46;96035.72;5044338;28;20057;-77
2021/10/01 09:44:30;;;;;;;2.55;1.60;;;;;;;13.50;69.02;96042.16;5046773;28;20809;-77
2021/10/01 09:46:56;;;;;;;5.80;1.70;;;;;;;13.73;72.78;96039.88;5056112;28;20108;-76
2021/10/01 09:49:30;;;;;;;2.65;1.50;;;;;;;14.06;68.39;96032.22;5051243;28;20120;-77
2021/10/01 09:51:56;;;;;;;5.00;2.03;;;;;;;14.26;66.33;96026.72;5045883;28;20061;-78
2021/10/01 09:54:24;;;;;;;4.20;1.83;;;;;;;14.16;69.23;96026.81;5049442;28;20052;-77
2021/10/01 09:56:51;;;;;;;4.25;1.75;;;;;;;14.58;69.03;96019.25;5049265;28;20057;-77
2021/10/01 09:59:21;;;;;;;4.65;1.70;;;;;;;15.28;65.95;96010.72;5053031;28;20036;-77
2021/10/01 10:02:08;;;;;;;3.55;1.75;;;;;;;16.30;59.65;96010.19;5069151;28;20061;-74
2021/10/01 10:04:41;;;;;;;2.92;1.80;;;;;;;16.45;57.89;96001.94;5069654;28;20558;-74
2021/10/01 10:07:18;;;;;;;2.95;1.60;;;;;;;16.88;57.52;95997.41;5048867;28;20061;-81
2021/10/01 10:09:47;;;;;;;9.13;1.90;;;;;;;16.79;60.09;95999.97;5029009;28;20653;-75
2021/10/01 10:12:19;;;;;;;4.35;1.73;;;;;;;17.45;55.87;95995.09;5029651;28;20072;-76
2021/10/01 10:14:51;;;;;;;7.47;2.05;;;;;;;18.16;56.45;95983.84;5030539;28;20802;-77
2021/10/01 10:17:23;;;;;;;4.22;1.50;;;;;;;18.64;54.50;95986.84;5029472;28;20103;-75
2021/10/01 10:19:53;;;;;;;2.15;1.30;;;;;;;19.15;51.68;95982.75;5029042;28;20041;-75
2021/10/01 10:22:20;;;;;;;5.25;1.90;;;;;;;19.42;49.06;95986.19;5029389;28;20076;-75
2021/10/01 10:24:46;;;;;;;2.35;1.50;;;;;;;19.48;48.99;95974.28;5034735;28;20045;-79
2021/10/01 10:27:12;;;;;;;5.28;1.70;;;;;;;19.47;50.81;95972.72;5048967;28;20053;-77
2021/10/01 10:29:43;;;;;;;3.70;1.73;;;;;;;18.92;51.40;95973.28;5049144;28;20067;-75
2021/10/01 10:32:11;;;;;;;4.38;1.80;;;;;;;18.30;54.25;95980.31;5041422;28;20051;-75
2021/10/01 10:34:48;;;;;;;3.08;1.75;;;;;;;20.04;47.20;95973.56;5049066;28;20044;-76
2021/10/01 10:37:14;;;;;;;3.05;1.67;;;;;;;20.01;51.14;95968.88;5039924;28;20048;-76
2021/10/01 10:39:43;;;;;;;5.55;1.95;;;;;;;20.75;45.80;95969.56;5031066;28;20696;-76
2021/10/01 10:42:14;;;;;;;4.28;1.80;;;;;;;20.30;46.60;95970.03;5049474;28;20040;-77
2021/10/01 10:44:54;;;;;;;3.08;1.70;;;;;;;20.70;48.11;95967.03;5039238;28;20041;-77
2021/10/01 10:47:54;;;;;;;4.10;2.00;;;;;;;20.47;48.95;95964.59;5029548;28;20503;-77
2021/10/01 10:50:25;;;;;;;3.97;1.92;;;;;;;20.47;46.57;95959.25;5029295;28;20045;-77
2021/10/01 10:55:41;;;;;;;2.58;1.67;;;;;;;21.78;39.58;95949.56;5031340;28;20061;-77
2021/10/01 10:58:22;;;;;;;6.13;1.60;;;;;;;22.30;39.37;95945.53;5034378;28;20029;-76
2021/10/01 11:01:23;;;;;;;3.08;1.70;;;;;;;22.11;41.66;95940.69;5041091;28;20041;-76
2021/10/01 11:03:54;;;;;;;2.22;1.67;;;;;;;22.35;41.08;95939.19;5043859;28;20033;-78
2021/10/01 11:06:20;;;;;;;3.63;1.63;;;;;;;22.50;39.04;95930.47;5031625;28;20385;-78
2021/10/01 11:09:12;;;;;;;5.90;2.08;;;;;;;22.52;39.26;95936.28;5047281;28;20056;-77
2021/10/01 11:11:40;;;;;;;3.72;1.90;;;;;;;22.15;40.64;95936.22;5045241;28;20049;-77
2021/10/01 11:14:14;;;;;;;5.75;1.90;;;;;;;22.41;41.17;95927.13;5048202;28;20048;-77
2021/10/01 11:16:41;;;;;;;4.70;1.75;;;;;;;22.00;43.33;95923.50;5047993;28;20072;-78
2021/10/01 11:19:09;;;;;;;4.10;1.80;;;;;;;21.60;44.62;95924.84;5047994;28;20045;-78
2021/10/01 11:21:37;;;;;;;2.40;1.70;;;;;;;23.24;40.34;95924.97;5047126;28;20048;-79
2021/10/01 11:24:05;;;;;;;2.45;1.70;;;;;;;24.01;37.58;95913.22;5048587;28;20048;-78
2021/10/01 11:26:37;;;;;;;2.72;1.60;;;;;;;22.69;41.27;95910.34;5045736;28;20041;-79
2021/10/01 11:29:05;;;;;;;3.72;1.90;;;;;;;22.85;42.10;95913.88;5047414;28;20056;-80
2021/10/01 11:31:39;;;;;;;5.53;2.03;;;;;;;24.03;40.67;95905.59;5046540;28;20052;-75
2021/10/01 11:34:05;;;;;;;3.60;1.80;;;;;;;24.53;36.00;95899.81;5045731;28;20103;-75
2021/10/01 11:36:31;;;;;;;3.97;1.80;;;;;;;23.85;38.05;95896.28;5044280;28;20639;-76
2021/10/01 11:39:07;;;;;;;5.97;1.90;;;;;;;24.05;39.70;95899.88;5044372;28;20088;-79
2021/10/01 11:41:38;;;;;;;2.75;1.70;;;;;;;24.04;40.00;95891.00;5048502;28;20044;-79
2021/10/01 11:44:05;;;;;;;2.60;1.80;;;;;;;23.65;39.88;95890.78;5050582;28;20056;-78
2021/10/01 11:46:39;;;;;;;2.53;1.80;;;;;;;22.94;37.53;95890.41;5042855;28;20052;-79
2021/10/01 11:49:13;;;;;;;3.30;1.75;;;;;;;23.15;40.26;95884.09;5031366;28;20075;-79
2021/10/01 11:51:39;;;;;;;3.15;1.80;;;;;;;23.04;38.58;95882.97;5034583;28;20119;-78
2021/10/01 11:54:06;;;;;;;5.15;1.95;;;;;;;22.66;40.19;95877.69;5047176;28;20760;-77
2021/10/01 11:56:32;;;;;;;4.10;1.88;;;;;;;23.68;39.53;95868.59;5046326;28;20041;-76
2021/10/01 11:58:58;;;;;;;4.50;1.70;;;;;;;24.61;36.84;95873.88;5039317;28;20052;-76
2021/10/01 12:01:23;;;;;;;3.35;1.80;;;;;;;24.52;36.98;95860.59;5047801;28;20457;-77
2021/10/01 12:03:50;;;;;;;7.93;2.10;;;;;;;24.27;35.70;95860.81;5046806;28;20115;-76
2021/10/01 12:06:35;;;;;;;3.83;1.95;;;;;;;25.66;35.04;95855.94;5045584;28;20061;-76
2021/10/01 12:09:03;;;;;;;3.80;1.98;;;;;;;25.88;33.20;95850.91;5038939;28;20094;-76
2021/10/01 12:11:34;;;;;;;3.22;1.90;;;;;;;25.91;33.90;95847.50;5047356;28;20045;-75
2021/10/01 12:14:20;;;;;;;2.97;1.90;;;;;;;24.89;35.75;95842.19;5047997;28;20581;-76
2021/10/01 12:17:02;;;;;;;3.97;1.88;;;;;;;23.01;39.57;95839.59;5029561;28;20038;-75
2021/10/01 12:19:28;;;;;;;5.82;2.10;;;;;;;25.33;36.39;95843.03;5027919;28;20176;-76
2021/10/01 12:22:14;;;;;;;3.42;2.00;;;;;;;24.98;35.23;95828.50;5027700;28;20045;-76
2021/10/01 12:24:54;;;;;;;3.00;2.10;;;;;;;25.06;34.88;95829.44;5031422;28;20040;-76
2021/10/01 12:27:32;;;;;;;3.40;2.00;;;;;;;25.03;39.50;95830.16;5042415;28;20041;-77
2021/10/01 12:29:58;;;;;;;2.60;1.80;;;;;;;25.30;35.94;95825.66;5027424;28;20045;-77
2021/10/01 12:32:24;;;;;;;3.05;2.00;;;;;;;25.31;34.76;95819.16;5038733;28;20064;-77
2021/10/01 12:34:55;;;;;;;5.68;2.03;;;;;;;25.69;35.20;95812.09;5027936;28;20769;-76
2021/10/01 12:37:23;;;;;;;2.85;1.98;;;;;;;25.27;35.54;95807.53;5027882;28;20455;-76
2021/10/01 12:39:52;;;;;;;2.58;1.83;;;;;;;25.80;34.05;95800.72;5032206;28;20037;-76
2021/10/01 12:42:30;;;;;;;2.85;1.90;;;;;;;25.53;35.03;95806.84;5047887;28;20418;-77
2021/10/01 12:45:12;;;;;;;5.85;2.10;;;;;;;25.54;36.84;95800.31;5046692;28;20045;-76
2021/10/01 12:47:40;;;;;;;4.65;2.10;;;;;;;24.63;38.77;95791.69;5028146;28;20045;-77
2021/10/01 12:50:08;;;;;;;3.45;2.00;;;;;;;24.62;37.90;95794.72;5027494;28;20045;-77
2021/10/01 12:52:36;;;;;;;3.60;2.20;;;;;;;23.65;39.02;95788.69;5038632;28;20473;-77
2021/10/01 12:55:15;;;;;;;3.13;1.92;;;;;;;25.62;35.53;95795.81;5043570;28;20095;-76
2021/10/01 12:57:46;;;;;;;4.32;1.90;;;;;;;25.64;33.70;95790.06;5047983;28;20045;-76
2021/10/01 13:00:16;;;;;;;3.63;2.10;;;;;;;26.40;34.05;95790.06;5050503;28;20067;-78
2021/10/01 13:02:44;;;;;;;2.85;2.00;;;;;;;25.86;32.90;95788.47;5050728;28;20045;-78
2021/10/01 13:05:17;;;;;;;4.70;1.92;;;;;;;23.76;36.16;95777.44;5030158;28;20045;-77
2021/10/01 13:07:58;;;;;;;3.45;2.15;;;;;;;25.63;34.30;95775.84;5032836;28;20163;-78
2021/10/01 13:10:30;;;;;;;3.40;2.15;;;;;;;26.26;34.50;95770.97;5047156;28;20045;-77
2021/10/01 13:13:03;;;;;;;16.65;2.50;;;;;;;25.43;35.22;95777.81;5048699;28;20064;-77
2021/10/01 13:15:41;;;;;;;5.45;2.15;;;;;;;25.79;35.77;95777.59;5046245;28;20041;-77
2021/10/01 13:18:14;;;;;;;5.20;2.25;;;;;;;24.81;36.69;95764.34;5048621;28;20064;-77
2021/10/01 13:20:49;;;;;;;4.73;1.90;;;;;;;25.48;33.77;95763.25;5048190;28;20045;-77